עמוד ראשי
METAR-TAF:

METAR-TAF

שדות תעופה :

Mekoryuk, אלסקה, ארצות הברית

קו רוחב: 60-22N, קו אורך: 166-16W, גובה: 15מטר

תצפית מזג אוויר נוכחית

הדו"ח נערך לפני 25דקות, בשעה 12:19 UTC
רוח 4קשר מכיוון מזרח
טמפרטורת 7 צלסיוס
לחות 93%
לחץ 1015 hPa
ראות: 4.0קילומטר
מעונן בגובה 200רגל
אד

METAR: PAMY 201219Z AUTO 10004KT 2 1/2SM BR OVC002 07/06 A2998 RMK AO2 VIS 1 3/4V3 $

זמן: 04:44 (12:44 UTC)


TAF: חסר

תצפיות ותחזיות מזג אוויר לגבי יותר מ- 4,000 שדות תעופה ברחבי העולם. דוחות METAR ו- TAF.

התחנות הזמינות מסומנות בנקודות צהובות ואדומות על גבי המפה.

העבר את העכבר לנקודה הצבעונית על מנת לראות את שם התחנה.

לאחר מכן, לחץ כדי לראות את תוכן ואת תחזיות מזג האוויר.

כדי לשנות את המפה: לחץ על הכפתורים הירוקים עם הפלוס השחור כדי להתקרב; על הכפתור הירוק עם המקף כדי להתרחק; או בחיצים הירוקים למפות סמוכות.


METAR-TAF: